Time;durP1;ratioP1;P1;durP2;ratioP2;P2;SDS_P1;SDS_P2;PMS_P1;PMS_P2;Temp;Humidity;BMP_temperature;BMP_pressure;BME280_temperature;BME280_humidity;BME280_pressure;Samples;Min_cycle;Max_cycle;Signal;HPM_P1;HPM_P2
2023/06/01 00:01:38;;;;;;;17.55;9.32;;;;;;;12.26;79.85;102157.50;5024531;28;20056;-75
2023/06/01 00:04:24;;;;;;;12.80;8.93;;;;;;;12.20;80.03;102156.72;5011916;28;20046;-74
2023/06/01 00:07:10;;;;;;;15.90;9.20;;;;;;;12.14;80.30;102147.13;5026258;28;20557;-75
2023/06/01 00:09:55;;;;;;;14.13;9.25;;;;;;;12.08;80.72;102150.72;5029004;28;20798;-74
2023/06/01 00:12:40;;;;;;;19.42;9.98;;;;;;;12.00;80.12;102149.13;4998286;28;20046;-75
2023/06/01 00:15:25;;;;;;;15.45;9.60;;;;;;;11.98;81.03;102156.19;5025827;28;20042;-74
2023/06/01 00:18:12;;;;;;;15.27;9.52;;;;;;;11.89;81.20;102149.22;5025829;28;20128;-76
2023/06/01 00:21:00;;;;;;;17.92;9.45;;;;;;;11.79;81.86;102152.00;5024573;28;20053;-75
2023/06/01 00:23:45;;;;;;;18.58;9.52;;;;;;;11.71;81.73;102153.00;4963623;28;1188302;-73
2023/06/01 00:26:32;;;;;;;13.25;9.52;;;;;;;11.70;81.95;102156.56;5027894;28;20141;-73
2023/06/01 00:29:17;;;;;;;14.07;9.13;;;;;;;11.63;82.29;102159.28;5018496;28;20054;-74
2023/06/01 00:32:03;;;;;;;15.05;9.15;;;;;;;11.59;82.28;102156.69;5026985;28;20077;-73
2023/06/01 00:34:48;;;;;;;16.70;9.23;;;;;;;11.54;82.20;102154.13;5025251;28;20593;-73
2023/06/01 00:37:33;;;;;;;16.23;9.10;;;;;;;11.47;82.64;102152.47;5013305;28;20061;-76
2023/06/01 00:40:19;;;;;;;14.30;8.27;;;;;;;11.40;82.88;102146.38;5020331;28;20054;-76
2023/06/01 00:43:04;;;;;;;11.50;7.90;;;;;;;11.34;83.24;102157.03;5027194;28;20049;-76
2023/06/01 00:45:50;;;;;;;14.88;9.18;;;;;;;11.26;83.56;102158.88;5011464;28;20566;-76
2023/06/01 00:48:36;;;;;;;14.07;8.23;;;;;;;11.19;83.75;102152.81;5022997;28;20608;-76
2023/06/01 00:51:21;;;;;;;14.35;8.68;;;;;;;11.12;83.73;102149.38;5012257;28;20514;-75
2023/06/01 00:54:07;;;;;;;14.07;8.75;;;;;;;11.10;84.23;102158.19;5012011;28;20580;-76
2023/06/01 00:56:53;;;;;;;14.27;8.85;;;;;;;11.08;84.18;102159.97;5027201;28;20368;-76
2023/06/01 00:59:39;;;;;;;13.32;8.18;;;;;;;11.06;84.12;102159.13;5024665;28;20572;-76
2023/06/01 01:02:24;;;;;;;12.75;8.23;;;;;;;10.96;84.46;102168.88;5014705;28;20046;-76
2023/06/01 01:05:10;;;;;;;14.90;9.23;;;;;;;10.93;84.79;102166.31;5021668;28;20996;-76
2023/06/01 01:08:31;;;;;;;13.30;8.23;;;;;;;10.91;84.67;102168.94;4995640;28;20034;-76
2023/06/01 01:11:23;;;;;;;14.98;8.23;;;;;;;10.83;84.95;102160.22;5028022;28;20034;-76
2023/06/01 01:14:22;;;;;;;13.48;8.63;;;;;;;10.73;85.34;102167.38;5024778;28;20573;-75
2023/06/01 01:17:19;;;;;;;14.23;8.60;;;;;;;10.70;85.38;102173.53;5026236;28;20213;-74
2023/06/01 01:20:17;;;;;;;14.10;8.65;;;;;;;10.67;85.50;102173.59;5019543;28;20050;-75
2023/06/01 01:23:51;;;;;;;16.45;9.05;;;;;;;10.61;86.02;102180.69;5009943;28;20053;-74
2023/06/01 01:27:02;;;;;;;15.38;9.13;;;;;;;10.48;86.09;102175.50;5017308;28;20521;-74
2023/06/01 01:29:51;;;;;;;15.40;9.65;;;;;;;10.46;86.31;102173.78;5012107;28;20038;-74
2023/06/01 01:32:39;;;;;;;16.70;10.25;;;;;;;10.46;86.24;102177.28;5019155;28;20049;-72
2023/06/01 01:35:29;;;;;;;13.52;9.50;;;;;;;10.50;86.58;102183.41;5022575;28;20042;-73
2023/06/01 01:38:14;;;;;;;13.05;9.07;;;;;;;10.50;86.38;102176.38;5000584;28;20054;-74
2023/06/01 01:41:00;;;;;;;15.15;8.77;;;;;;;10.54;86.06;102172.81;5025281;28;20058;-73
2023/06/01 01:43:46;;;;;;;15.82;9.82;;;;;;;10.47;86.01;102173.75;5010647;28;20711;-74
2023/06/01 01:46:47;;;;;;;12.52;9.02;;;;;;;10.45;86.21;102177.31;5009148;28;20042;-74
2023/06/01 01:49:44;;;;;;;14.20;9.43;;;;;;;10.48;86.09;102174.66;5023622;28;20054;-74
2023/06/01 01:52:37;;;;;;;14.55;8.88;;;;;;;10.49;86.17;102181.63;5015960;28;20590;-74
2023/06/01 01:55:26;;;;;;;13.43;7.88;;;;;;;10.56;86.27;102176.31;5017219;28;20046;-75
2023/06/01 01:58:12;;;;;;;14.23;8.55;;;;;;;10.54;85.80;102175.44;5008589;28;20089;-75
2023/06/01 02:00:58;;;;;;;15.65;8.55;;;;;;;10.51;85.99;102180.75;5010686;28;20050;-75
2023/06/01 02:03:44;;;;;;;13.38;8.73;;;;;;;10.47;86.19;102180.81;5022768;28;20046;-74
2023/06/01 02:06:32;;;;;;;14.73;8.48;;;;;;;10.50;86.19;102179.00;5024181;28;20184;-74
2023/06/01 02:09:17;;;;;;;13.70;8.15;;;;;;;10.49;86.15;102182.53;5009727;28;20050;-74
2023/06/01 02:12:03;;;;;;;13.65;8.20;;;;;;;10.49;86.10;102177.25;5025226;28;20057;-75
2023/06/01 02:14:49;;;;;;;16.92;8.70;;;;;;;10.47;86.20;102178.16;5012227;28;20050;-75
2023/06/01 02:17:37;;;;;;;15.23;8.57;;;;;;;10.41;86.61;102171.19;5011074;28;20046;-74
2023/06/01 02:20:23;;;;;;;14.45;9.00;;;;;;;10.51;86.86;102177.22;5012404;28;20510;-75
2023/06/01 02:23:08;;;;;;;13.77;8.40;;;;;;;10.54;86.39;102175.44;5014689;28;20061;-74
2023/06/01 02:25:54;;;;;;;14.07;8.52;;;;;;;10.64;86.08;102175.34;5009679;28;20050;-75
2023/06/01 02:28:48;;;;;;;11.93;7.82;;;;;;;10.65;85.76;102172.72;5026845;28;20046;-76
2023/06/01 02:31:35;;;;;;;11.35;7.90;;;;;;;10.61;85.72;102178.03;5022636;28;20054;-75
2023/06/01 02:34:22;;;;;;;12.77;7.95;;;;;;;10.59;85.62;102172.75;5006915;28;20593;-75
2023/06/01 02:37:07;;;;;;;12.35;8.30;;;;;;;10.62;85.83;102167.47;4992957;28;20049;-74
2023/06/01 02:39:52;;;;;;;15.30;8.68;;;;;;;10.68;85.69;102167.41;5017342;28;20498;-75
2023/06/01 02:42:39;;;;;;;13.52;8.77;;;;;;;10.70;85.80;102168.25;5011173;28;20053;-76
2023/06/01 02:45:24;;;;;;;13.73;8.73;;;;;;;10.75;84.71;102170.84;5028581;28;20569;-76
2023/06/01 02:48:10;;;;;;;13.45;8.77;;;;;;;10.74;84.53;102168.25;5003322;28;20046;-75
2023/06/01 02:50:56;;;;;;;14.07;8.02;;;;;;;10.63;84.90;102166.59;5021492;28;20129;-73
2023/06/01 02:53:42;;;;;;;12.30;8.52;;;;;;;10.63;85.38;102174.50;5003463;28;20772;-74
2023/06/01 02:56:30;;;;;;;14.65;8.55;;;;;;;10.62;84.94;102172.75;5010141;28;20046;-74
2023/06/01 02:59:27;;;;;;;14.05;9.15;;;;;;;10.61;84.98;102171.00;5020534;28;20070;-74
2023/06/01 03:02:17;;;;;;;11.68;8.80;;;;;;;10.63;84.64;102168.34;5022167;28;20101;-75
2023/06/01 03:05:06;;;;;;;12.95;8.30;;;;;;;10.59;84.41;102164.84;5007016;28;22087;-74
2023/06/01 03:07:51;;;;;;;15.77;8.77;;;;;;;10.56;84.80;102165.75;5000750;28;20050;-74
2023/06/01 03:10:43;;;;;;;14.45;9.02;;;;;;;10.51;84.88;102159.66;5010645;28;20633;-74
2023/06/01 03:13:30;;;;;;;17.90;9.30;;;;;;;10.50;84.95;102163.19;4997506;28;20588;-73
2023/06/01 03:16:16;;;;;;;11.98;8.43;;;;;;;10.51;85.28;102162.31;5017621;28;20038;-76
2023/06/01 03:19:17;;;;;;;12.95;8.88;;;;;;;10.60;85.05;102168.38;5011596;28;20133;-76
2023/06/01 03:22:06;;;;;;;13.50;8.65;;;;;;;10.60;85.18;102165.75;5007083;28;20050;-75
2023/06/01 03:24:54;;;;;;;14.55;9.02;;;;;;;10.65;84.68;102167.44;5028419;28;20089;-73
2023/06/01 03:27:45;;;;;;;15.32;9.18;;;;;;;10.63;84.81;102163.94;5027238;28;21345;-73
2023/06/01 03:30:31;;;;;;;15.00;8.45;;;;;;;10.76;84.29;102166.47;5031165;28;20045;-74
2023/06/01 03:33:16;;;;;;;12.98;8.98;;;;;;;10.74;83.76;102162.97;5021090;28;20665;-74
2023/06/01 03:36:03;;;;;;;15.40;8.85;;;;;;;10.72;83.65;102157.72;5012683;28;20041;-76
2023/06/01 03:38:48;;;;;;;12.45;8.95;;;;;;;10.73;83.65;102154.19;5027821;28;20050;-75
2023/06/01 03:41:35;;;;;;;10.48;8.45;;;;;;;10.72;83.46;102155.94;5019804;28;20058;-76
2023/06/01 03:44:22;;;;;;;13.07;7.90;;;;;;;10.70;83.17;102157.72;5007377;28;20030;-75
2023/06/01 03:47:07;;;;;;;14.43;8.68;;;;;;;10.69;83.06;102165.66;5028025;28;20045;-75
2023/06/01 03:49:53;;;;;;;15.50;8.77;;;;;;;10.64;83.49;102160.44;5024932;28;20050;-75
2023/06/01 03:52:39;;;;;;;12.38;8.07;;;;;;;10.71;83.42;102164.75;5005705;28;20046;-75
2023/06/01 03:55:26;;;;;;;14.98;8.20;;;;;;;10.68;83.38;102164.75;5008046;28;20177;-76
2023/06/01 03:58:20;;;;;;;14.43;8.75;;;;;;;10.69;83.42;102163.88;5028537;28;20049;-74
2023/06/01 04:01:05;;;;;;;14.88;8.82;;;;;;;10.77;83.78;102168.22;5010858;28;20632;-75
2023/06/01 04:03:53;;;;;;;15.88;8.98;;;;;;;10.82;83.14;102167.28;5020867;28;20049;-75
2023/06/01 04:06:38;;;;;;;12.90;8.25;;;;;;;10.86;82.60;102165.50;5021882;28;20132;-76
2023/06/01 04:09:23;;;;;;;12.05;7.53;;;;;;;10.83;82.28;102169.03;4991476;28;20121;-76
2023/06/01 04:12:10;;;;;;;11.70;7.60;;;;;;;10.85;81.84;102176.94;5023799;28;20184;-76
2023/06/01 04:14:56;;;;;;;13.02;7.03;;;;;;;10.81;81.74;102165.53;5012908;28;20649;-76
2023/06/01 04:17:43;;;;;;;15.57;8.43;;;;;;;10.75;81.45;102170.84;5025120;28;20054;-76
2023/06/01 04:20:30;;;;;;;10.98;7.28;;;;;;;10.69;82.27;102171.78;5005914;28;20076;-76
2023/06/01 04:23:16;;;;;;;13.07;7.40;;;;;;;10.67;82.53;102170.94;5010927;28;20054;-73
2023/06/01 04:26:02;;;;;;;11.35;7.60;;;;;;;10.74;82.58;102169.09;5012747;28;20133;-73
2023/06/01 04:28:48;;;;;;;12.40;7.93;;;;;;;10.79;82.25;102169.06;5038034;28;20050;-74
2023/06/01 04:31:34;;;;;;;15.00;7.88;;;;;;;10.81;81.95;102170.81;5011422;28;20038;-76
2023/06/01 04:34:20;;;;;;;17.08;7.90;;;;;;;10.89;81.90;102168.06;5017550;28;20050;-74
2023/06/01 04:37:06;;;;;;;11.00;8.27;;;;;;;10.93;81.38;102166.31;5009173;28;20049;-74
2023/06/01 04:39:51;;;;;;;14.55;7.80;;;;;;;10.98;80.94;102167.13;5017520;28;20062;-73
2023/06/01 04:42:42;;;;;;;12.32;7.55;;;;;;;11.06;80.76;102177.59;5026341;28;20057;-76
2023/06/01 04:45:30;;;;;;;12.88;7.78;;;;;;;11.04;81.04;102174.94;5009612;28;20042;-72
2023/06/01 04:48:22;;;;;;;14.25;7.78;;;;;;;11.10;81.17;102172.25;5017387;28;20052;-70
2023/06/01 04:51:23;;;;;;;13.80;8.27;;;;;;;11.23;80.77;102177.41;5009014;28;20050;-70
2023/06/01 04:54:09;;;;;;;14.82;8.00;;;;;;;11.24;80.55;102182.66;5024935;28;20046;-75
2023/06/01 04:56:54;;;;;;;16.40;7.85;;;;;;;11.25;80.33;102176.50;5017542;28;20526;-75
2023/06/01 04:59:41;;;;;;;13.07;8.25;;;;;;;11.30;80.38;102187.84;5005826;28;20054;-71
2023/06/01 05:02:28;;;;;;;11.90;7.97;;;;;;;11.33;80.06;102179.03;5028292;28;20129;-71
2023/06/01 05:05:15;;;;;;;15.60;8.18;;;;;;;11.39;79.90;102171.03;5011502;28;20042;-71
2023/06/01 05:08:02;;;;;;;13.80;7.97;;;;;;;11.42;79.46;102175.41;5016421;28;20124;-71
2023/06/01 05:10:47;;;;;;;17.58;8.27;;;;;;;11.41;79.73;102182.47;5016433;28;20046;-71
2023/06/01 05:13:38;;;;;;;12.98;7.88;;;;;;;11.51;78.40;102177.91;5030084;28;20050;-71
2023/06/01 05:16:24;;;;;;;14.45;7.63;;;;;;;11.42;79.21;102180.69;5010682;28;20037;-71
2023/06/01 05:19:10;;;;;;;18.63;8.80;;;;;;;11.43;78.69;102177.16;5008893;28;20057;-71
2023/06/01 05:21:56;;;;;;;15.00;7.43;;;;;;;11.45;78.72;102184.16;5034951;28;20049;-71
2023/06/01 05:24:42;;;;;;;14.77;7.68;;;;;;;11.50;78.01;102184.09;5015321;28;20137;-71
2023/06/01 05:27:27;;;;;;;12.55;7.47;;;;;;;11.47;78.18;102179.72;5005217;28;20057;-71
2023/06/01 05:30:13;;;;;;;16.25;8.02;;;;;;;11.55;77.82;102171.72;5021189;28;20208;-72
2023/06/01 05:33:01;;;;;;;12.75;7.60;;;;;;;11.63;77.71;102176.91;4992956;28;20565;-72
2023/06/01 05:35:47;;;;;;;14.13;7.20;;;;;;;11.73;76.65;102172.34;5005029;28;20062;-71
2023/06/01 05:38:36;;;;;;;14.40;7.47;;;;;;;11.73;76.95;102169.72;5007840;28;20101;-70
2023/06/01 05:41:22;;;;;;;13.40;7.40;;;;;;;11.72;76.77;102179.41;5019680;28;20164;-71
2023/06/01 05:44:07;;;;;;;13.23;6.70;;;;;;;11.83;75.91;102184.53;5019785;28;20058;-71
2023/06/01 05:46:55;;;;;;;14.40;7.70;;;;;;;11.85;76.00;102168.69;5005534;28;20046;-71
2023/06/01 05:49:41;;;;;;;11.95;7.50;;;;;;;11.87;75.66;102182.72;5010938;28;20053;-72
2023/06/01 05:52:26;;;;;;;12.82;7.30;;;;;;;11.83;75.69;102187.19;5014054;28;20038;-71
2023/06/01 05:55:12;;;;;;;13.95;7.47;;;;;;;11.88;75.04;102184.47;5028205;28;20053;-71
2023/06/01 05:57:57;;;;;;;13.75;6.85;;;;;;;11.82;75.65;102185.44;5023675;28;20046;-71
2023/06/01 06:00:42;;;;;;;10.15;6.45;;;;;;;11.86;75.13;102184.50;4994568;28;20046;-71
2023/06/01 06:03:28;;;;;;;14.57;6.93;;;;;;;11.94;75.10;102187.06;5010809;28;20058;-71
2023/06/01 06:06:14;;;;;;;13.35;6.80;;;;;;;12.01;74.48;102183.44;5022003;28;20054;-72
2023/06/01 06:08:59;;;;;;;16.73;7.30;;;;;;;12.13;75.12;102177.09;5018927;28;20098;-72
2023/06/01 06:11:44;;;;;;;17.58;7.50;;;;;;;12.60;73.33;102177.19;5023617;28;20084;-71
2023/06/01 06:14:29;;;;;;;13.90;7.18;;;;;;;12.67;72.64;102183.25;4997269;28;20525;-72
2023/06/01 06:17:15;;;;;;;12.15;6.68;;;;;;;12.57;72.94;102188.72;5005788;28;20251;-72
2023/06/01 06:20:00;;;;;;;10.52;6.70;;;;;;;12.56;72.72;102189.63;5024399;28;20203;-72
2023/06/01 06:22:50;;;;;;;13.77;6.90;;;;;;;12.64;72.48;102188.59;5021394;28;20928;-71
2023/06/01 06:25:36;;;;;;;9.55;6.30;;;;;;;12.77;71.61;102194.56;5018940;28;20129;-72
2023/06/01 06:28:23;;;;;;;12.57;6.57;;;;;;;12.96;70.46;102179.19;5023427;28;20054;-72
2023/06/01 06:31:08;;;;;;;14.90;6.72;;;;;;;12.91;70.01;102184.59;5040010;28;20038;-71
2023/06/01 06:33:53;;;;;;;11.25;6.32;;;;;;;13.01;69.76;102177.34;5007160;28;20137;-71
2023/06/01 06:36:39;;;;;;;10.50;6.63;;;;;;;12.95;70.04;102186.28;4991863;28;20145;-72
2023/06/01 06:39:24;;;;;;;12.38;6.43;;;;;;;12.92;70.41;102186.34;5015807;28;20565;-72
2023/06/01 06:42:10;;;;;;;14.73;7.30;;;;;;;12.96;69.98;102177.44;5023093;28;20536;-72
2023/06/01 06:44:57;;;;;;;11.63;6.78;;;;;;;12.98;70.17;102183.56;5025008;28;20613;-72
2023/06/01 06:47:45;;;;;;;12.27;6.60;;;;;;;12.97;70.82;102180.94;5026971;28;20046;-72
2023/06/01 06:50:30;;;;;;;13.25;6.82;;;;;;;13.03;70.31;102184.34;5026317;28;20896;-71
2023/06/01 06:53:17;;;;;;;11.27;6.68;;;;;;;13.14;69.70;102180.63;5025762;28;20121;-71
2023/06/01 06:56:03;;;;;;;9.68;6.50;;;;;;;13.16;69.13;102189.44;5007966;28;20125;-72
2023/06/01 06:58:48;;;;;;;13.40;6.90;;;;;;;13.13;69.00;102189.47;5025941;28;20046;-71
2023/06/01 07:01:50;;;;;;;14.73;6.63;;;;;;;13.25;68.93;102191.00;5029210;28;20050;-72
2023/06/01 07:04:36;;;;;;;14.07;7.10;;;;;;;13.51;68.21;102186.09;5028833;28;20542;-72
2023/06/01 07:07:21;;;;;;;13.20;6.43;;;;;;;13.88;67.34;102189.72;5025308;28;20054;-72
2023/06/01 07:10:07;;;;;;;14.68;6.75;;;;;;;13.98;67.68;102187.69;5009010;28;20074;-72
2023/06/01 07:12:52;;;;;;;21.30;7.15;;;;;;;14.23;67.35;102190.66;5018713;28;20588;-72
2023/06/01 07:15:38;;;;;;;11.88;6.95;;;;;;;14.36;65.88;102185.03;5029385;28;20164;-71
2023/06/01 07:18:23;;;;;;;26.83;8.43;;;;;;;14.45;65.73;102198.06;5028377;28;20548;-72
2023/06/01 07:21:08;;;;;;;11.98;7.07;;;;;;;14.51;64.34;102183.78;5028773;28;20046;-72
2023/06/01 07:23:53;;;;;;;10.52;6.18;;;;;;;14.28;64.61;102191.41;5028832;28;21052;-71
2023/06/01 07:26:38;;;;;;;12.95;6.90;;;;;;;14.02;64.89;102188.50;5026410;28;20050;-72
2023/06/01 07:29:24;;;;;;;10.60;6.60;;;;;;;13.86;65.32;102190.63;5021610;28;20381;-72
2023/06/01 07:32:10;;;;;;;13.38;6.90;;;;;;;13.87;65.84;102184.44;5035807;28;21070;-72
2023/06/01 07:34:57;;;;;;;12.80;7.38;;;;;;;14.01;64.96;102186.75;5026837;28;20041;-72
2023/06/01 07:37:43;;;;;;;14.38;7.70;;;;;;;14.27;64.80;102181.72;5028247;28;20054;-72
2023/06/01 07:40:32;;;;;;;13.50;6.88;;;;;;;14.55;64.67;102177.50;5025396;28;20038;-72
2023/06/01 07:43:17;;;;;;;12.27;7.10;;;;;;;14.80;64.90;102184.84;5028611;28;20129;-72
2023/06/01 07:46:03;;;;;;;26.52;7.78;;;;;;;15.05;63.74;102187.69;5028381;28;20046;-72
2023/06/01 07:48:48;;;;;;;10.18;6.07;;;;;;;15.15;62.42;102183.88;5026977;28;20172;-72
2023/06/01 07:51:34;;;;;;;11.68;6.80;;;;;;;15.15;61.17;102181.22;5028507;28;20049;-73
2023/06/01 07:54:19;;;;;;;13.82;6.82;;;;;;;14.91;61.87;102186.28;5009065;28;20047;-72
2023/06/01 07:57:05;;;;;;;12.27;6.90;;;;;;;14.89;61.91;102189.91;5020904;28;20514;-72
2023/06/01 07:59:51;;;;;;;11.00;7.47;;;;;;;14.87;61.39;102181.97;4999626;28;20141;-72
2023/06/01 08:02:36;;;;;;;11.93;6.70;;;;;;;14.82;61.73;102177.72;5009595;28;20054;-72
2023/06/01 08:05:22;;;;;;;14.00;6.93;;;;;;;14.75;61.30;102180.50;5020204;28;20582;-72
2023/06/01 08:08:07;;;;;;;12.25;7.35;;;;;;;14.71;62.34;102184.19;5018212;28;20976;-72
2023/06/01 08:10:53;;;;;;;12.35;7.15;;;;;;;14.79;62.11;102175.13;4997752;28;20080;-72
2023/06/01 08:13:38;;;;;;;11.93;6.75;;;;;;;15.01;61.63;102189.56;5028810;28;20058;-72
2023/06/01 08:16:26;;;;;;;14.85;6.97;;;;;;;15.08;61.29;102184.97;5027704;28;20045;-72
2023/06/01 08:19:12;;;;;;;13.00;6.43;;;;;;;15.12;61.11;102178.63;5027999;28;20053;-72
2023/06/01 08:21:57;;;;;;;14.98;6.55;;;;;;;15.18;60.52;102183.78;5027271;28;20497;-73
2023/06/01 08:24:45;;;;;;;8.98;6.30;;;;;;;15.14;60.20;102178.63;5027316;28;20049;-72
2023/06/01 08:27:30;;;;;;;14.80;7.00;;;;;;;15.27;60.60;102179.13;5027031;28;20049;-72
2023/06/01 08:30:16;;;;;;;19.67;6.82;;;;;;;15.43;60.68;102167.13;5036800;28;20038;-72
2023/06/01 08:33:02;;;;;;;15.65;6.97;;;;;;;15.65;61.06;102171.78;5011903;28;20057;-72
2023/06/01 08:35:48;;;;;;;11.50;6.30;;;;;;;15.87;59.13;102160.53;5008362;28;20507;-72
2023/06/01 08:38:36;;;;;;;14.18;6.25;;;;;;;15.82;58.60;102163.31;5011262;28;20046;-72
2023/06/01 08:41:47;;;;;;;13.02;5.65;;;;;;;15.91;59.17;102159.53;5026654;28;20046;-72
2023/06/01 08:44:40;;;;;;;10.93;6.00;;;;;;;16.09;57.60;102166.03;5027825;28;20069;-72
2023/06/01 08:47:28;;;;;;;12.47;6.00;;;;;;;16.01;57.66;102163.63;5026408;28;20050;-72
2023/06/01 08:50:14;;;;;;;11.48;6.07;;;;;;;15.96;58.09;102154.91;5012000;28;20607;-73
2023/06/01 08:53:01;;;;;;;13.52;5.88;;;;;;;16.01;57.93;102160.09;5001860;28;20098;-72
2023/06/01 08:55:56;;;;;;;11.77;6.32;;;;;;;16.05;57.87;102148.44;5026870;28;20046;-72
2023/06/01 08:58:44;;;;;;;11.10;5.55;;;;;;;16.12;57.18;102144.66;5008301;28;20517;-72
2023/06/01 09:01:29;;;;;;;12.73;5.95;;;;;;;16.16;58.08;102148.97;5021010;28;20042;-72
2023/06/01 09:04:15;;;;;;;14.30;6.30;;;;;;;16.25;56.70;102145.09;5027841;28;20143;-72
2023/06/01 09:07:02;;;;;;;9.10;5.90;;;;;;;16.33;57.19;102144.84;5010489;28;20552;-73
2023/06/01 09:09:48;;;;;;;10.88;5.95;;;;;;;16.38;56.14;102141.13;5026433;28;20085;-72
2023/06/01 09:12:33;;;;;;;10.52;6.13;;;;;;;16.50;55.93;102144.28;5021122;28;20058;-72
2023/06/01 09:15:21;;;;;;;12.73;6.93;;;;;;;16.47;56.30;102137.28;5018504;28;20116;-72
2023/06/01 09:18:13;;;;;;;9.93;6.20;;;;;;;16.59;56.94;102135.97;5026374;28;20054;-72
2023/06/01 09:21:12;;;;;;;13.98;6.13;;;;;;;16.76;57.01;102132.72;5027136;28;20125;-72
2023/06/01 09:24:18;;;;;;;19.10;6.65;;;;;;;16.98;56.51;102131.97;4999157;28;20053;-72
2023/06/01 09:27:04;;;;;;;13.57;6.15;;;;;;;17.18;56.15;102131.22;5011330;28;20137;-72
2023/06/01 09:29:55;;;;;;;10.85;6.50;;;;;;;17.38;55.04;102131.31;5014169;28;20038;-73
2023/06/01 09:32:41;;;;;;;13.43;6.95;;;;;;;17.35;54.24;102131.44;5027259;28;20042;-72
2023/06/01 09:35:48;;;;;;;21.17;7.03;;;;;;;17.33;55.24;102124.44;5012629;28;20046;-72
2023/06/01 09:38:34;;;;;;;31.00;7.32;;;;;;;17.44;54.95;102124.03;5025199;28;20034;-72
2023/06/01 09:41:21;;;;;;;15.88;6.57;;;;;;;17.61;53.94;102116.22;5025903;28;20744;-73
2023/06/01 09:44:06;;;;;;;12.70;5.72;;;;;;;17.75;54.08;102112.16;5025648;28;20062;-72
2023/06/01 09:47:03;;;;;;;10.40;5.15;;;;;;;17.89;51.93;102116.91;5026879;28;20050;-72
2023/06/01 09:49:50;;;;;;;10.80;6.10;;;;;;;17.95;52.26;102116.66;5026200;28;20057;-72
2023/06/01 09:52:35;;;;;;;20.45;6.53;;;;;;;17.89;52.36;102115.09;5026294;28;20738;-72
2023/06/01 09:55:21;;;;;;;7.95;5.70;;;;;;;17.94;51.23;102112.25;5026275;28;20530;-72
2023/06/01 09:58:21;;;;;;;17.42;6.40;;;;;;;17.77;52.36;102107.59;5025294;28;20078;-72
2023/06/01 10:01:08;;;;;;;8.63;5.72;;;;;;;17.89;52.63;102114.25;5025695;28;20042;-72
2023/06/01 10:04:00;;;;;;;8.80;5.72;;;;;;;18.19;50.65;102105.94;4992342;28;20535;-73
2023/06/01 10:06:46;;;;;;;12.15;6.30;;;;;;;18.01;51.82;102105.75;5010110;28;20068;-72
2023/06/01 10:09:35;;;;;;;27.95;6.80;;;;;;;17.99;52.16;102110.31;5027075;28;20117;-72
2023/06/01 10:12:22;;;;;;;12.05;5.20;;;;;;;18.14;51.73;102106.13;5022421;28;20089;-72
2023/06/01 10:15:10;;;;;;;10.68;5.22;;;;;;;18.25;50.57;102106.53;5014332;28;20061;-72
2023/06/01 10:18:16;;;;;;;9.57;5.32;;;;;;;18.39;50.92;102105.06;5010065;28;20069;-73
2023/06/01 10:21:06;;;;;;;10.10;4.97;;;;;;;18.47;49.80;102095.78;5023176;28;20133;-72
2023/06/01 10:23:51;;;;;;;8.13;5.18;;;;;;;18.41;50.49;102093.41;5026515;28;20054;-72
2023/06/01 10:26:51;;;;;;;10.38;5.70;;;;;;;18.36;51.08;102089.19;5010126;28;20061;-72
2023/06/01 10:29:38;;;;;;;12.82;5.82;;;;;;;18.45;51.64;102083.47;5027870;28;20048;-72
2023/06/01 10:32:48;;;;;;;23.35;6.40;;;;;;;18.70;51.81;102087.69;5025210;28;20054;-72
2023/06/01 10:35:42;;;;;;;13.23;6.13;;;;;;;18.90;50.93;102084.13;5019055;28;20133;-73
2023/06/01 10:38:28;;;;;;;;;;;;;;;18.85;50.21;102092.34;5024374;28;20045;-73
2023/06/01 10:41:30;;;;;;;12.05;5.60;;;;;;;18.95;49.40;102083.94;5014854;28;19936;-73
2023/06/01 10:44:38;;;;;;;16.58;6.15;;;;;;;19.06;49.80;102095.00;5029504;28;20042;-73
2023/06/01 10:47:23;;;;;;;9.68;6.70;;;;;;;19.16;48.38;102092.75;5022769;28;20046;-73
2023/06/01 10:50:09;;;;;;;11.38;6.00;;;;;;;19.13;49.00;102091.09;5025630;28;20727;-73
2023/06/01 10:52:55;;;;;;;9.50;6.55;;;;;;;19.23;48.53;102083.50;5029408;28;20147;-73
2023/06/01 10:55:41;;;;;;;19.58;6.32;;;;;;;19.28;50.06;102077.97;5014850;28;20038;-73
2023/06/01 10:58:26;;;;;;;17.52;5.93;;;;;;;19.55;49.29;102076.63;5009179;28;20046;-72
2023/06/01 11:01:20;;;;;;;12.30;5.65;;;;;;;19.75;47.78;102082.81;5012967;28;20050;-72
2023/06/01 11:04:07;;;;;;;14.15;6.50;;;;;;;19.84;47.61;102073.47;5028219;28;20050;-73
2023/06/01 11:06:52;;;;;;;11.43;6.22;;;;;;;19.95;46.23;102079.16;5023846;28;20054;-72
2023/06/01 11:09:45;;;;;;;24.63;7.07;;;;;;;19.81;47.92;102076.28;5028484;28;20046;-72
2023/06/01 11:13:12;;;;;;;11.65;6.22;;;;;;;20.04;47.51;102063.59;4998827;28;20080;-72
2023/06/01 11:19:00;;;;;;;10.13;5.93;;;;;;;20.36;46.05;102059.22;5023261;28;20054;-72
2023/06/01 11:21:46;;;;;;;11.07;6.30;;;;;;;20.37;46.59;102060.97;5015246;28;20042;-72
2023/06/01 11:24:36;;;;;;;27.13;7.65;;;;;;;20.41;46.58;102056.31;5024181;28;20045;-72
2023/06/01 11:27:23;;;;;;;16.75;5.72;;;;;;;20.66;47.07;102058.56;5023134;28;20474;-73
2023/06/01 11:30:09;;;;;;;9.30;5.82;;;;;;;20.83;44.80;102043.38;5025491;28;20050;-73
2023/06/01 11:32:58;;;;;;;18.45;6.90;;;;;;;20.81;45.78;102045.31;5028465;28;20049;-73
2023/06/01 11:35:43;;;;;;;10.45;6.18;;;;;;;20.87;44.93;102048.50;5026247;28;20140;-73
2023/06/01 11:38:43;;;;;;;11.40;5.80;;;;;;;20.98;45.67;102047.03;5019664;28;20050;-73
2023/06/01 11:41:28;;;;;;;8.98;5.57;;;;;;;21.20;44.00;102031.50;5025302;28;20046;-72
2023/06/01 11:44:14;;;;;;;9.50;5.70;;;;;;;21.20;43.91;102036.84;5027034;28;20513;-73
2023/06/01 11:47:00;;;;;;;18.30;6.15;;;;;;;21.14;44.90;102041.69;5018066;28;20077;-72
2023/06/01 11:49:50;;;;;;;13.50;6.13;;;;;;;21.18;44.86;102038.75;5028116;28;20034;-73
2023/06/01 11:52:35;;;;;;;14.43;5.47;;;;;;;21.25;44.99;102028.53;5028120;28;20159;-73
2023/06/01 11:55:21;;;;;;;9.57;5.40;;;;;;;21.30;43.81;102028.28;5028375;28;20133;-73
2023/06/01 11:58:07;;;;;;;10.60;5.05;;;;;;;21.31;44.13;102030.00;5010539;28;20141;-73
2023/06/01 12:00:54;;;;;;;8.50;5.43;;;;;;;21.33;43.43;102034.31;5012856;28;20057;-73
2023/06/01 12:03:49;;;;;;;10.35;5.60;;;;;;;21.35;44.33;102026.22;5008702;28;20578;-73
2023/06/01 12:06:35;;;;;;;12.00;5.30;;;;;;;21.38;43.76;102021.53;5025089;28;20050;-73
2023/06/01 12:09:21;;;;;;;11.35;5.25;;;;;;;21.41;44.73;102015.13;5028118;28;20050;-74
2023/06/01 12:12:09;;;;;;;12.27;4.88;;;;;;;21.57;42.85;102024.00;5027319;28;20042;-73
2023/06/01 12:14:55;;;;;;;11.05;5.20;;;;;;;21.51;43.37;102019.00;5028058;28;20057;-73
2023/06/01 12:17:49;;;;;;;12.52;5.30;;;;;;;21.57;44.57;102021.31;5025831;28;20100;-73
2023/06/01 12:20:43;;;;;;;10.90;5.18;;;;;;;21.86;43.30;102020.59;5023506;28;20050;-73
2023/06/01 12:23:29;;;;;;;8.77;4.88;;;;;;;21.90;42.81;102015.91;5021165;28;20058;-73
2023/06/01 12:26:14;;;;;;;7.90;4.72;;;;;;;21.78;43.50;102009.44;5026582;28;20050;-73
2023/06/01 12:28:59;;;;;;;7.93;4.60;;;;;;;21.83;42.48;102007.34;5025834;28;20136;-74
2023/06/01 12:31:54;;;;;;;28.00;6.22;;;;;;;21.76;43.85;102011.34;5024739;28;20202;-73
2023/06/01 12:34:47;;;;;;;8.45;4.90;;;;;;;21.87;43.48;102015.13;4997003;28;20058;-73
2023/06/01 12:37:34;;;;;;;13.02;5.35;;;;;;;22.02;43.52;102005.31;5010041;28;20794;-73
2023/06/01 12:40:23;;;;;;;10.38;4.32;;;;;;;22.13;43.71;102003.78;5012341;28;20117;-73
2023/06/01 12:43:21;;;;;;;9.63;5.40;;;;;;;22.30;42.60;102014.34;5008178;28;20050;-73
2023/06/01 12:46:06;;;;;;;9.70;4.93;;;;;;;22.38;41.98;102010.31;5018758;28;20054;-73
2023/06/01 12:49:17;;;;;;;10.43;4.72;;;;;;;22.36;41.45;101999.69;5026706;28;20050;-74
2023/06/01 12:52:02;;;;;;;11.13;4.85;;;;;;;22.23;42.89;102004.91;5033164;28;20053;-73
2023/06/01 12:54:50;;;;;;;10.15;4.80;;;;;;;22.21;41.61;102001.50;5026344;28;20045;-74
2023/06/01 12:57:40;;;;;;;9.02;4.60;;;;;;;22.13;42.89;101998.41;5025569;28;20357;-73